createdAt,value
2022-11-10T00:03:04.224Z,7.53
2022-11-10T00:06:10.253Z,7.51
2022-11-10T00:09:16.247Z,7.54
2022-11-10T00:12:22.697Z,7.45
2022-11-10T00:15:47.691Z,7.44
2022-11-10T00:18:54.083Z,7.31
2022-11-10T00:22:00.624Z,7.28
2022-11-10T00:25:07.121Z,7.17
2022-11-10T00:28:12.903Z,7.09
2022-11-10T00:31:18.749Z,7.04
2022-11-10T00:34:25.435Z,6.85
2022-11-10T00:37:31.657Z,6.71
2022-11-10T00:40:37.448Z,6.73
2022-11-10T00:43:43.495Z,6.65
2022-11-10T00:46:49.316Z,6.61
2022-11-10T00:49:55.334Z,6.75
2022-11-10T00:53:01.005Z,6.66
2022-11-10T00:56:06.610Z,6.50
2022-11-10T00:59:12.436Z,6.47
2022-11-10T01:02:18.555Z,6.41
2022-11-10T01:05:24.501Z,6.38
2022-11-10T01:08:30.674Z,6.49
2022-11-10T01:11:36.731Z,6.42
2022-11-10T01:14:42.907Z,6.40
2022-11-10T01:17:48.730Z,6.29
2022-11-10T01:20:54.392Z,6.26
2022-11-10T01:24:00.366Z,6.22
2022-11-10T01:27:06.415Z,6.24
2022-11-10T01:30:12.378Z,6.29
2022-11-10T01:33:18.058Z,6.17
2022-11-10T01:36:24.106Z,6.10
2022-11-10T01:39:29.981Z,6.05
2022-11-10T01:42:42.786Z,6.07
2022-11-10T01:45:51.834Z,6.06
2022-11-10T01:49:02.823Z,5.94
2022-11-10T01:52:11.741Z,5.84
2022-11-10T01:55:18.000Z,5.82
2022-11-10T01:58:26.743Z,5.69
2022-11-10T02:01:32.753Z,5.52
2022-11-10T02:04:40.178Z,5.35
2022-11-10T02:07:46.311Z,5.43
2022-11-10T02:10:52.033Z,5.50
2022-11-10T02:13:58.984Z,5.55
2022-11-10T02:17:05.010Z,5.55
2022-11-10T02:20:12.284Z,5.43
2022-11-10T02:23:30.328Z,5.32
2022-11-10T02:26:36.811Z,5.26
2022-11-10T02:29:42.579Z,5.26
2022-11-10T02:32:48.357Z,5.22
2022-11-10T02:35:54.097Z,5.01
2022-11-10T02:39:00.339Z,5.12
2022-11-10T02:42:10.581Z,5.13
2022-11-10T02:45:16.281Z,5.11
2022-11-10T02:48:22.017Z,5.04
2022-11-10T02:51:27.969Z,5.09
2022-11-10T02:54:33.959Z,5.12
2022-11-10T02:57:39.890Z,5.21
2022-11-10T03:00:45.571Z,5.17
2022-11-10T03:03:51.501Z,5.03
2022-11-10T03:06:57.412Z,4.96
2022-11-10T03:10:03.543Z,4.81
2022-11-10T03:13:09.409Z,4.82
2022-11-10T03:16:15.136Z,4.91
2022-11-10T03:19:20.827Z,4.92
2022-11-10T03:22:26.660Z,4.93
2022-11-10T03:25:32.373Z,4.93
2022-11-10T03:28:38.266Z,4.91
2022-11-10T03:31:44.041Z,4.84
2022-11-10T03:34:49.938Z,4.68
2022-11-10T03:37:55.493Z,4.71
2022-11-10T03:41:18.928Z,4.70
2022-11-10T03:44:26.104Z,4.72
2022-11-10T03:47:31.959Z,4.67
2022-11-10T03:50:37.522Z,4.64
2022-11-10T03:53:43.498Z,4.48
2022-11-10T03:56:49.836Z,4.49
2022-11-10T03:59:55.785Z,4.48
2022-11-10T04:03:01.583Z,4.42
2022-11-10T04:06:28.288Z,4.44
2022-11-10T04:09:34.421Z,4.50
2022-11-10T04:12:58.927Z,4.48
2022-11-10T04:16:05.055Z,4.42
2022-11-10T04:19:11.108Z,4.38
2022-11-10T04:22:37.066Z,4.50
2022-11-10T04:26:02.834Z,4.57
2022-11-10T04:29:09.802Z,4.61
2022-11-10T04:32:15.579Z,4.71
2022-11-10T04:35:21.775Z,4.72
2022-11-10T04:38:27.747Z,4.62
2022-11-10T04:41:36.703Z,4.61
2022-11-10T04:44:42.605Z,4.69
2022-11-10T04:47:48.589Z,4.81
2022-11-10T04:50:54.737Z,4.75
2022-11-10T04:54:01.622Z,4.79
2022-11-10T04:57:10.319Z,4.82
2022-11-10T05:00:16.458Z,4.94
2022-11-10T05:03:25.297Z,4.89
2022-11-10T05:06:31.346Z,4.86
2022-11-10T05:09:37.786Z,4.88
2022-11-10T05:12:43.819Z,4.89
2022-11-10T05:15:49.920Z,5.00
2022-11-10T05:18:58.454Z,4.94
2022-11-10T05:22:06.016Z,4.89
2022-11-10T05:25:12.193Z,4.91
2022-11-10T05:28:20.352Z,4.94
2022-11-10T05:31:26.527Z,5.04
2022-11-10T05:34:32.858Z,4.92
2022-11-10T05:37:39.847Z,4.90
2022-11-10T05:40:45.632Z,5.03
2022-11-10T05:43:51.645Z,4.92
2022-11-10T05:46:57.790Z,5.03
2022-11-10T05:50:03.776Z,5.05
2022-11-10T05:53:09.920Z,5.05
2022-11-10T05:56:18.162Z,5.05
2022-11-10T05:59:23.891Z,5.07
2022-11-10T06:02:29.962Z,5.21
2022-11-10T06:05:36.584Z,5.36
2022-11-10T06:08:42.404Z,5.33
2022-11-10T06:11:48.570Z,5.33
2022-11-10T06:14:54.334Z,5.48
2022-11-10T06:18:00.363Z,5.65
2022-11-10T06:21:06.398Z,5.67
2022-11-10T06:24:12.497Z,5.77
2022-11-10T06:27:18.357Z,5.96
2022-11-10T06:30:25.113Z,6.06
2022-11-10T06:33:31.003Z,6.21
2022-11-10T06:36:37.372Z,6.18
2022-11-10T06:39:46.693Z,6.22
2022-11-10T06:42:52.657Z,6.31
2022-11-10T06:45:58.776Z,6.45
2022-11-10T06:49:04.844Z,6.67
2022-11-10T06:52:10.643Z,6.79
2022-11-10T06:55:16.405Z,6.66
2022-11-10T06:58:22.311Z,6.72
2022-11-10T07:01:28.424Z,6.91
2022-11-10T07:04:34.817Z,7.19
2022-11-10T07:07:40.627Z,7.30
2022-11-10T07:10:52.211Z,7.06
2022-11-10T07:13:58.163Z,7.32
2022-11-10T07:17:03.929Z,7.39
2022-11-10T07:20:10.486Z,7.59
2022-11-10T07:23:16.794Z,7.71
2022-11-10T07:26:25.272Z,8.00
2022-11-10T07:29:31.479Z,8.13
2022-11-10T07:32:39.681Z,8.53
2022-11-10T07:35:51.583Z,8.44
2022-11-10T07:38:57.354Z,8.47
2022-11-10T07:42:04.429Z,8.82
2022-11-10T07:45:10.446Z,9.00
2022-11-10T07:48:16.272Z,9.28
2022-11-10T07:51:22.225Z,9.43
2022-11-10T07:54:28.365Z,9.11
2022-11-10T07:57:34.486Z,9.52
2022-11-10T08:00:41.447Z,9.88
2022-11-10T08:03:47.292Z,10.64
2022-11-10T08:06:54.818Z,11.20
2022-11-10T08:10:00.822Z,11.10
2022-11-10T08:13:08.867Z,11.65
2022-11-10T08:16:14.602Z,12.40
2022-11-10T08:19:20.571Z,12.75
2022-11-10T08:22:26.592Z,12.76
2022-11-10T08:25:35.104Z,12.64
2022-11-10T08:28:41.756Z,12.79
2022-11-10T08:31:47.619Z,13.30
2022-11-10T08:34:56.013Z,13.58
2022-11-10T08:38:12.409Z,13.62
2022-11-10T08:41:18.447Z,13.74
2022-11-10T08:44:24.239Z,13.60
2022-11-10T08:47:30.020Z,13.85
2022-11-10T08:50:36.104Z,14.14
2022-11-10T08:53:41.849Z,14.40
2022-11-10T08:56:48.079Z,14.83
2022-11-10T08:59:53.949Z,15.13
2022-11-10T09:03:05.307Z,15.07
2022-11-10T09:06:11.455Z,15.28
2022-11-10T09:09:17.187Z,14.88
2022-11-10T09:12:25.434Z,14.94
2022-11-10T09:15:32.132Z,14.99
2022-11-10T09:18:38.365Z,15.08
2022-11-10T09:21:44.182Z,14.98
2022-11-10T09:24:50.200Z,15.44
2022-11-10T09:27:56.095Z,15.01
2022-11-10T09:31:04.263Z,15.24
2022-11-10T09:34:10.543Z,15.33
2022-11-10T09:37:16.298Z,15.40
2022-11-10T09:40:38.966Z,15.68
2022-11-10T09:43:57.323Z,15.96
2022-11-10T09:47:05.635Z,16.35
2022-11-10T09:50:15.832Z,16.39
2022-11-10T09:53:39.034Z,16.38
2022-11-10T09:56:45.082Z,16.78
2022-11-10T09:59:51.229Z,16.63
2022-11-10T10:03:02.264Z,16.42
2022-11-10T10:06:15.447Z,16.78
2022-11-10T10:09:41.713Z,17.26
2022-11-10T10:13:00.269Z,17.23
2022-11-10T10:16:12.258Z,17.23
2022-11-10T10:19:37.128Z,17.40
2022-11-10T10:23:00.815Z,17.46
2022-11-10T10:26:10.415Z,17.09
2022-11-10T10:29:22.264Z,17.45
2022-11-10T10:32:28.824Z,17.69
2022-11-10T10:35:40.497Z,17.51
2022-11-10T10:38:49.844Z,17.89
2022-11-10T10:41:56.007Z,18.10
2022-11-10T10:45:15.972Z,17.97
2022-11-10T10:48:26.848Z,17.81
2022-11-10T10:51:33.009Z,17.73
2022-11-10T10:54:39.810Z,17.79
2022-11-10T10:57:53.347Z,17.82
2022-11-10T11:01:14.581Z,18.40
2022-11-10T11:04:31.407Z,18.46
2022-11-10T11:07:40.648Z,18.61
2022-11-10T11:10:49.067Z,18.16
2022-11-10T11:14:12.902Z,18.12
2022-11-10T11:17:21.483Z,17.84
2022-11-10T11:20:42.479Z,17.79
2022-11-10T11:23:54.709Z,18.03
2022-11-10T11:27:34.246Z,18.22
2022-11-10T11:31:12.251Z,18.37
2022-11-10T11:34:22.420Z,18.13
2022-11-10T11:37:48.316Z,17.92
2022-11-10T11:40:57.717Z,18.12
2022-11-10T11:44:09.821Z,18.19
2022-11-10T11:47:37.063Z,18.16
2022-11-10T11:50:52.153Z,18.41
2022-11-10T11:54:13.223Z,18.45
2022-11-10T11:57:40.190Z,18.07
2022-11-10T12:01:07.002Z,18.10
2022-11-10T12:04:15.829Z,18.06
2022-11-10T12:07:27.880Z,18.18
2022-11-10T12:10:43.117Z,18.17
2022-11-10T12:13:49.476Z,18.23
2022-11-10T12:17:10.432Z,18.25
2022-11-10T12:20:35.604Z,18.22
2022-11-10T12:23:50.651Z,18.41
2022-11-10T12:27:00.107Z,18.26
2022-11-10T12:30:06.116Z,18.17
2022-11-10T12:33:30.348Z,18.06
2022-11-10T12:36:37.284Z,18.24
2022-11-10T12:39:58.719Z,18.26
2022-11-10T12:43:07.176Z,18.34
2022-11-10T12:46:13.907Z,18.28
2022-11-10T12:49:32.776Z,18.01
2022-11-10T12:52:53.329Z,17.97
2022-11-10T12:56:08.955Z,17.94
2022-11-10T12:59:20.730Z,17.94
2022-11-10T13:02:40.527Z,17.81
2022-11-10T13:05:54.749Z,17.74
2022-11-10T13:09:00.868Z,17.74
2022-11-10T13:12:18.905Z,17.62
2022-11-10T13:15:39.791Z,17.46
2022-11-10T13:18:45.593Z,17.40
2022-11-10T13:21:51.532Z,17.10
2022-11-10T13:25:16.232Z,16.97
2022-11-10T13:28:57.959Z,16.88
2022-11-10T13:32:18.188Z,16.83
2022-11-10T13:35:30.540Z,16.72
2022-11-10T13:38:37.891Z,16.58
2022-11-10T13:41:46.760Z,16.51
2022-11-10T13:44:54.201Z,16.42
2022-11-10T13:48:12.184Z,16.48
2022-11-10T13:51:50.288Z,16.37
2022-11-10T13:54:56.443Z,16.19
2022-11-10T13:58:04.155Z,16.19
2022-11-10T14:01:19.202Z,16.17
2022-11-10T14:04:42.470Z,15.96
2022-11-10T14:07:49.328Z,15.90
2022-11-10T14:10:54.953Z,15.87
2022-11-10T14:14:19.110Z,15.71
2022-11-10T14:17:45.081Z,15.55
2022-11-10T14:21:00.536Z,15.45
2022-11-10T14:24:25.277Z,15.37
2022-11-10T14:27:35.357Z,15.27
2022-11-10T14:30:41.082Z,15.22
2022-11-10T14:33:57.522Z,15.12
2022-11-10T14:37:04.334Z,14.99
2022-11-10T14:40:15.473Z,14.88
2022-11-10T14:43:31.913Z,14.67
2022-11-10T14:46:38.517Z,14.56
2022-11-10T14:49:44.708Z,14.45
2022-11-10T14:52:53.321Z,14.35
2022-11-10T14:56:00.132Z,14.19
2022-11-10T14:59:11.743Z,14.03
2022-11-10T15:02:19.347Z,13.94
2022-11-10T15:05:25.660Z,13.77
2022-11-10T15:08:32.780Z,13.67
2022-11-10T15:11:40.128Z,13.57
2022-11-10T15:14:46.876Z,13.39
2022-11-10T15:17:54.949Z,13.27
2022-11-10T15:21:02.559Z,13.18
2022-11-10T15:24:08.417Z,13.01
2022-11-10T15:27:23.216Z,12.91
2022-11-10T15:30:29.420Z,12.81
2022-11-10T15:33:37.379Z,12.65
2022-11-10T15:36:43.628Z,12.52
2022-11-10T15:39:50.041Z,12.39
2022-11-10T15:43:11.360Z,12.32
2022-11-10T15:46:22.542Z,12.20
2022-11-10T15:49:37.802Z,12.08
2022-11-10T15:52:43.830Z,12.03
2022-11-10T15:55:49.924Z,11.90
2022-11-10T15:59:02.170Z,11.70
2022-11-10T16:02:18.049Z,11.64
2022-11-10T16:05:27.736Z,11.52
2022-11-10T16:08:34.922Z,11.41
2022-11-10T16:11:45.004Z,11.37
2022-11-10T16:14:52.533Z,11.23
2022-11-10T16:18:17.207Z,11.10
2022-11-10T16:21:24.475Z,11.01
2022-11-10T16:24:30.638Z,10.92
2022-11-10T16:27:37.248Z,10.83
2022-11-10T16:30:43.604Z,10.71
2022-11-10T16:33:50.161Z,10.62
2022-11-10T16:36:58.763Z,10.56
2022-11-10T16:40:12.638Z,10.46
2022-11-10T16:43:18.858Z,10.40
2022-11-10T16:46:25.965Z,10.34
2022-11-10T16:49:34.415Z,10.24
2022-11-10T16:52:48.801Z,10.18
2022-11-10T16:55:55.158Z,10.08
2022-11-10T16:59:01.313Z,10.03
2022-11-10T17:02:30.601Z,9.93
2022-11-10T17:05:36.685Z,9.87
2022-11-10T17:08:43.823Z,9.92
2022-11-10T17:11:52.701Z,9.94
2022-11-10T17:15:04.295Z,9.92
2022-11-10T17:18:11.646Z,9.84
2022-11-10T17:21:18.337Z,9.74
2022-11-10T17:24:24.468Z,9.73
2022-11-10T17:27:34.026Z,9.62
2022-11-10T17:30:43.823Z,9.56
2022-11-10T17:33:50.933Z,9.45
2022-11-10T17:36:57.471Z,9.37
2022-11-10T17:40:07.813Z,9.32
2022-11-10T17:43:14.126Z,9.18
2022-11-10T17:46:20.353Z,9.19
2022-11-10T17:49:26.063Z,9.09
2022-11-10T17:52:32.201Z,9.05
2022-11-10T17:55:38.167Z,8.98
2022-11-10T17:58:44.231Z,8.95
2022-11-10T18:01:50.153Z,8.79
2022-11-10T18:04:56.874Z,8.75
2022-11-10T18:08:03.178Z,8.75
2022-11-10T18:11:09.778Z,8.68
2022-11-10T18:14:15.955Z,8.67
2022-11-10T18:17:22.087Z,8.57
2022-11-10T18:20:28.062Z,8.46
2022-11-10T18:23:33.959Z,8.52
2022-11-10T18:26:39.772Z,8.48
2022-11-10T18:29:45.743Z,8.44
2022-11-10T18:32:51.631Z,8.34
2022-11-10T18:35:58.607Z,8.31
2022-11-10T18:39:04.587Z,8.31
2022-11-10T18:42:10.541Z,8.20
2022-11-10T18:45:16.475Z,8.18
2022-11-10T18:48:28.358Z,8.15
2022-11-10T18:51:36.242Z,8.12
2022-11-10T18:54:42.065Z,8.14
2022-11-10T18:57:47.772Z,8.08
2022-11-10T19:01:01.405Z,8.04
2022-11-10T19:04:07.834Z,7.97
2022-11-10T19:07:13.568Z,7.93
2022-11-10T19:10:20.815Z,7.87
2022-11-10T19:13:26.776Z,7.85
2022-11-10T19:16:32.636Z,7.71
2022-11-10T19:19:38.395Z,7.76
2022-11-10T19:22:44.484Z,7.70
2022-11-10T19:25:59.052Z,7.67
2022-11-10T19:29:05.001Z,7.67
2022-11-10T19:32:11.677Z,7.70
2022-11-10T19:35:18.122Z,7.61
2022-11-10T19:38:24.400Z,7.62
2022-11-10T19:41:31.779Z,7.57
2022-11-10T19:44:37.967Z,7.50
2022-11-10T19:47:44.022Z,7.48
2022-11-10T19:50:53.716Z,7.51
2022-11-10T19:54:05.178Z,7.39
2022-11-10T19:57:11.179Z,7.40
2022-11-10T20:00:17.257Z,7.37
2022-11-10T20:03:24.091Z,7.38
2022-11-10T20:06:30.726Z,7.34
2022-11-10T20:09:36.792Z,7.37
2022-11-10T20:12:42.947Z,7.35
2022-11-10T20:15:48.833Z,7.31
2022-11-10T20:18:54.763Z,7.23
2022-11-10T20:22:00.396Z,7.21
2022-11-10T20:25:06.501Z,7.23
2022-11-10T20:28:14.130Z,7.18
2022-11-10T20:31:21.879Z,7.19
2022-11-10T20:34:28.158Z,7.14
2022-11-10T20:37:34.330Z,7.04
2022-11-10T20:40:44.842Z,7.00
2022-11-10T20:43:51.356Z,7.03
2022-11-10T20:46:57.644Z,6.96
2022-11-10T20:50:03.745Z,6.97
2022-11-10T20:53:09.999Z,6.95
2022-11-10T20:56:16.000Z,6.91
2022-11-10T20:59:21.953Z,6.93
2022-11-10T21:02:30.895Z,6.92
2022-11-10T21:05:36.768Z,6.87
2022-11-10T21:08:43.155Z,6.79
2022-11-10T21:12:07.682Z,6.74
2022-11-10T21:15:13.778Z,6.77
2022-11-10T21:18:20.177Z,6.81
2022-11-10T21:21:28.145Z,6.72
2022-11-10T21:24:34.359Z,6.77
2022-11-10T21:27:40.343Z,6.72
2022-11-10T21:30:46.023Z,6.67
2022-11-10T21:33:55.228Z,6.62
2022-11-10T21:37:01.188Z,6.62
2022-11-10T21:40:07.439Z,6.59
2022-11-10T21:43:13.342Z,6.62
2022-11-10T21:46:19.465Z,6.62
2022-11-10T21:49:25.538Z,6.66
2022-11-10T21:52:34.610Z,6.68
2022-11-10T21:55:40.720Z,6.67
2022-11-10T21:58:46.589Z,6.68
2022-11-10T22:01:52.827Z,6.68
2022-11-10T22:04:58.747Z,6.68
2022-11-10T22:08:05.015Z,6.68
2022-11-10T22:11:37.345Z,6.63
2022-11-10T22:15:01.786Z,6.56
2022-11-10T22:18:33.294Z,6.57
2022-11-10T22:21:39.377Z,6.68
2022-11-10T22:24:45.163Z,6.57
2022-11-10T22:27:51.061Z,6.62
2022-11-10T22:30:57.085Z,6.64
2022-11-10T22:34:09.015Z,6.67
2022-11-10T22:37:14.913Z,6.63
2022-11-10T22:40:39.167Z,6.66
2022-11-10T22:44:03.788Z,6.70
2022-11-10T22:47:09.921Z,6.61
2022-11-10T22:50:16.151Z,6.56
2022-11-10T22:53:23.223Z,6.70
2022-11-10T22:56:30.744Z,6.70
2022-11-10T22:59:36.571Z,6.65
2022-11-10T23:02:42.289Z,6.68
2022-11-10T23:05:55.887Z,6.62
2022-11-10T23:09:02.286Z,6.62
2022-11-10T23:12:08.184Z,6.61
2022-11-10T23:15:15.231Z,6.65
2022-11-10T23:18:21.730Z,6.65
2022-11-10T23:21:28.804Z,6.61
2022-11-10T23:24:34.749Z,6.53
2022-11-10T23:27:40.776Z,6.53
2022-11-10T23:30:46.600Z,6.51
2022-11-10T23:33:53.728Z,6.58
2022-11-10T23:36:59.480Z,6.57
2022-11-10T23:40:05.904Z,6.57
2022-11-10T23:43:11.685Z,6.51
2022-11-10T23:46:17.800Z,6.49
2022-11-10T23:49:23.641Z,6.50
2022-11-10T23:52:29.393Z,6.52
2022-11-10T23:55:35.501Z,6.45
2022-11-10T23:58:41.443Z,6.47
